createdAt,value
2017-02-18T00:05:39.626Z,99.99
2017-02-18T00:15:39.513Z,99.99
2017-02-18T00:25:39.457Z,99.99
2017-02-18T00:35:39.603Z,99.99
2017-02-18T00:45:39.448Z,99.99
2017-02-18T00:55:39.479Z,99.99
2017-02-18T01:05:39.536Z,99.99
2017-02-18T01:15:39.532Z,99.99
2017-02-18T01:25:39.478Z,99.99
2017-02-18T01:35:39.730Z,99.99
2017-02-18T01:45:39.504Z,99.99
2017-02-18T01:55:39.526Z,99.99
2017-02-18T02:05:39.567Z,99.99
2017-02-18T02:15:39.529Z,99.99
2017-02-18T02:25:39.644Z,99.99
2017-02-18T02:35:39.536Z,99.99
2017-02-18T02:45:39.566Z,99.99
2017-02-18T02:55:40.199Z,99.99
2017-02-18T03:05:39.582Z,99.99
2017-02-18T03:15:39.611Z,99.99
2017-02-18T03:25:39.585Z,99.99
2017-02-18T03:35:39.804Z,99.99
2017-02-18T03:45:40.343Z,99.99
2017-02-18T03:55:39.625Z,99.99
2017-02-18T04:05:39.626Z,99.99
2017-02-18T04:15:39.661Z,99.99
2017-02-18T04:25:39.650Z,99.99
2017-02-18T04:35:39.625Z,99.99
2017-02-18T04:45:39.644Z,99.99
2017-02-18T04:55:39.656Z,99.99
2017-02-18T05:05:39.677Z,99.99
2017-02-18T05:15:39.670Z,99.99
2017-02-18T05:25:39.744Z,99.99
2017-02-18T05:35:39.748Z,99.99
2017-02-18T05:45:39.813Z,99.99
2017-02-18T05:55:39.914Z,99.99
2017-02-18T06:05:39.842Z,99.99
2017-02-18T06:15:39.715Z,99.99
2017-02-18T06:25:39.865Z,99.99
2017-02-18T06:35:39.748Z,99.99
2017-02-18T06:45:39.734Z,99.99
2017-02-18T06:55:39.747Z,99.99
2017-02-18T07:05:39.764Z,99.99
2017-02-18T07:15:39.754Z,99.99
2017-02-18T07:25:39.756Z,99.99
2017-02-18T07:35:39.776Z,99.99
2017-02-18T07:45:39.804Z,99.99
2017-02-18T07:55:39.799Z,99.99
2017-02-18T08:05:39.925Z,99.99
2017-02-18T08:15:39.801Z,99.99
2017-02-18T08:25:39.813Z,99.99
2017-02-18T08:35:39.850Z,99.99
2017-02-18T08:45:39.834Z,99.99
2017-02-18T08:55:39.869Z,99.99
2017-02-18T09:05:39.866Z,99.99
2017-02-18T09:15:39.868Z,99.99
2017-02-18T09:25:39.861Z,99.99
2017-02-18T09:35:39.861Z,99.99
2017-02-18T09:45:39.887Z,99.99
2017-02-18T09:55:39.899Z,99.99
2017-02-18T10:05:39.933Z,99.99
2017-02-18T10:15:39.927Z,99.99
2017-02-18T10:25:39.931Z,99.99
2017-02-18T10:35:39.960Z,99.99
2017-02-18T10:45:39.952Z,99.99
2017-02-18T10:55:39.965Z,99.99
2017-02-18T11:05:39.999Z,99.99
2017-02-18T11:15:40.006Z,99.99
2017-02-18T11:25:39.972Z,99.99
2017-02-18T11:35:39.973Z,99.99
2017-02-18T11:45:40.020Z,99.99
2017-02-18T11:55:40.155Z,98.03
2017-02-18T12:05:40.046Z,92.36
2017-02-18T12:15:40.021Z,92.74
2017-02-18T12:25:40.030Z,87.21
2017-02-18T12:35:44.310Z,85.93
2017-02-18T12:45:40.076Z,85.06
2017-02-18T12:55:40.075Z,86.69
2017-02-18T13:05:40.087Z,85.16
2017-02-18T13:15:40.083Z,84.2
2017-02-18T13:25:40.088Z,86.88
2017-02-18T13:35:40.238Z,85.6
2017-02-18T13:45:40.123Z,84.97
2017-02-18T13:55:40.131Z,86.21
2017-02-18T14:05:40.124Z,87.21
2017-02-18T14:15:40.384Z,85.88
2017-02-18T14:25:42.056Z,88.07
2017-02-18T14:35:40.181Z,88.45
2017-02-18T14:45:40.461Z,89.98
2017-02-18T14:55:48.096Z,90.41
2017-02-18T15:05:40.200Z,91.65
2017-02-18T15:15:40.190Z,93.08
2017-02-18T15:25:42.741Z,93.08
2017-02-18T15:35:40.214Z,93.46
2017-02-18T15:45:47.484Z,90.31
2017-02-18T15:55:40.259Z,91.7
2017-02-18T16:05:40.387Z,93.7
2017-02-18T16:15:48.381Z,94.37
2017-02-18T16:25:40.228Z,94.32
2017-02-18T16:45:40.258Z,97.36
2017-02-18T17:05:40.477Z,97.79
2017-02-18T17:15:40.438Z,99.99
2017-02-18T17:25:48.211Z,99.99
2017-02-18T17:35:40.422Z,99.99
2017-02-18T17:45:40.328Z,99.99
2017-02-18T17:55:40.427Z,99.99
2017-02-18T18:05:40.345Z,99.99
2017-02-18T18:15:40.614Z,99.99
2017-02-18T18:35:40.372Z,99.99
2017-02-18T18:55:40.388Z,99.99
2017-02-18T19:05:48.113Z,99.99
2017-02-18T19:15:40.402Z,99.99
2017-02-18T19:25:45.348Z,99.99
2017-02-18T19:45:40.401Z,99.99
2017-02-18T19:55:40.433Z,99.99
2017-02-18T20:05:40.450Z,99.99
2017-02-18T20:15:40.451Z,99.99
2017-02-18T20:25:45.954Z,99.99
2017-02-18T20:45:45.995Z,99.99
2017-02-18T20:55:40.483Z,99.99
2017-02-18T21:05:40.459Z,99.99
2017-02-18T21:15:52.028Z,99.99
2017-02-18T21:35:45.778Z,99.99
2017-02-18T21:45:40.529Z,99.99
2017-02-18T21:55:40.564Z,99.99
2017-02-18T22:05:40.828Z,99.99
2017-02-18T22:15:40.641Z,99.99
2017-02-18T22:25:40.687Z,99.99
2017-02-18T22:35:41.925Z,99.99
2017-02-18T22:45:40.588Z,99.99
2017-02-18T22:55:40.713Z,99.99
2017-02-18T23:05:40.721Z,99.99
2017-02-18T23:15:40.649Z,99.99
2017-02-18T23:25:40.615Z,99.99
2017-02-18T23:35:40.726Z,99.99
2017-02-18T23:45:42.334Z,99.99
2017-02-18T23:55:40.614Z,99.99
